Time,TemperatureF,DewpointF,PressureIn,WindDirection,WindDirectionDegrees,WindSpeedMPH,WindSpeedGustMPH,Humidity,HourlyPrecipIn,Conditions,Clouds,dailyrainin,SoftwareType,DateUTC
2013-10-04 00:36:00,66.9,66.6,29.85,South,180,1.1,-999.0,99,-99.99,,,0.00,Acu-Link.com,2013-10-04 04:36:00,
2013-10-04 00:51:00,66.7,66.4,29.85,SSE,157,1.1,-999.0,99,-99.99,,,0.00,Acu-Link.com,2013-10-04 04:51:00,
2013-10-04 01:37:00,66.6,66.3,29.85,SSE,157,2.2,-999.0,99,-99.99,,,0.00,Acu-Link.com,2013-10-04 05:37:00,
2013-10-04 01:53:00,66.4,66.1,29.85,SSW,202,3.7,-999.0,99,-99.99,,,0.00,Acu-Link.com,2013-10-04 05:53:00,
2013-10-04 02:09:00,66.4,66.1,29.84,SSE,157,2.7,-999.0,99,-99.99,,,0.00,Acu-Link.com,2013-10-04 06:09:00,
2013-10-04 02:24:00,66.6,66.3,29.85,SSW,202,2.7,-999.0,99,-99.99,,,0.00,Acu-Link.com,2013-10-04 06:24:00,
2013-10-04 02:39:00,66.6,66.3,29.85,SSE,157,2.2,-999.0,99,-99.99,,,0.00,Acu-Link.com,2013-10-04 06:39:00,
2013-10-04 02:54:00,66.0,65.7,29.85,SSW,202,0.0,-999.0,99,-99.99,,,0.00,Acu-Link.com,2013-10-04 06:54:00,
2013-10-04 03:12:00,66.0,65.7,29.85,South,180,1.7,-999.0,99,-99.99,,,0.00,Acu-Link.com,2013-10-04 07:12:00,
2013-10-04 03:27:00,65.8,65.5,29.85,SSE,157,2.7,-999.0,99,-99.99,,,0.00,Acu-Link.com,2013-10-04 07:27:00,
2013-10-04 03:43:00,65.8,65.5,29.85,SSE,157,3.2,-999.0,99,-99.99,,,0.00,Acu-Link.com,2013-10-04 07:43:00,
2013-10-04 03:59:00,65.8,65.5,29.84,SSE,157,2.7,-999.0,99,-99.99,,,0.00,Acu-Link.com,2013-10-04 07:59:00,
2013-10-04 04:14:00,65.5,65.2,29.84,East,90,0.0,-999.0,99,-99.99,,,0.00,Acu-Link.com,2013-10-04 08:14:00,
2013-10-04 04:29:00,65.1,64.8,29.84,SSW,202,1.1,-999.0,99,-99.99,,,0.00,Acu-Link.com,2013-10-04 08:29:00,
2013-10-04 04:44:00,64.9,64.6,29.85,SSE,157,1.1,-999.0,99,-99.99,,,0.00,Acu-Link.com,2013-10-04 08:44:00,
2013-10-04 04:59:00,64.9,64.6,29.84,South,180,2.7,-999.0,99,-99.99,,,0.00,Acu-Link.com,2013-10-04 08:59:00,
2013-10-04 05:14:00,64.9,64.6,29.84,ESE,112,1.7,-999.0,99,-99.99,,,0.00,Acu-Link.com,2013-10-04 09:14:00,
2013-10-04 05:29:00,64.9,64.6,29.86,SSW,202,0.0,-999.0,99,-99.99,,,0.00,Acu-Link.com,2013-10-04 09:29:00,
2013-10-04 05:45:00,64.2,63.9,29.86,South,180,1.7,-999.0,99,-99.99,,,0.00,Acu-Link.com,2013-10-04 09:45:00,
2013-10-04 06:00:00,64.2,63.9,29.86,South,180,1.7,-999.0,99,-99.99,,,0.00,Acu-Link.com,2013-10-04 10:00:00,
2013-10-04 06:15:00,64.4,64.1,29.87,South,180,2.7,-999.0,99,-99.99,,,0.00,Acu-Link.com,2013-10-04 10:15:00,
2013-10-04 06:30:00,64.2,63.9,29.87,SSW,202,2.2,-999.0,99,-99.99,,,0.00,Acu-Link.com,2013-10-04 10:30:00,
2013-10-04 06:45:00,64.2,63.9,29.87,South,180,1.7,-999.0,99,-99.99,,,0.00,Acu-Link.com,2013-10-04 10:45:00,
2013-10-04 07:01:00,64.0,63.7,29.88,South,180,0.0,-999.0,99,-99.99,,,0.00,Acu-Link.com,2013-10-04 11:01:00,
2013-10-04 07:16:00,63.7,63.4,29.88,SSW,202,0.0,-999.0,99,-99.99,,,0.00,Acu-Link.com,2013-10-04 11:16:00,
2013-10-04 07:31:00,63.9,63.6,29.89,SSE,157,2.2,-999.0,99,-99.99,,,0.00,Acu-Link.com,2013-10-04 11:31:00,
2013-10-04 07:47:00,64.0,63.7,29.89,WSW,247,1.7,-999.0,99,-99.99,,,0.00,Acu-Link.com,2013-10-04 11:47:00,
2013-10-04 08:02:00,64.0,63.7,29.90,SSE,157,1.1,-999.0,99,-99.99,,,0.00,Acu-Link.com,2013-10-04 12:02:00,
2013-10-04 08:17:00,64.6,64.3,29.90,SW,225,2.2,-999.0,99,-99.99,,,0.00,Acu-Link.com,2013-10-04 12:17:00,
2013-10-04 08:32:00,65.3,64.7,29.90,South,180,0.0,-999.0,98,-99.99,,,0.00,Acu-Link.com,2013-10-04 12:32:00,
2013-10-04 08:48:00,66.4,65.2,29.91,SSW,202,2.2,-999.0,96,-99.99,,,0.00,Acu-Link.com,2013-10-04 12:48:00,
2013-10-04 09:03:00,67.3,65.5,29.91,WSW,247,3.2,-999.0,94,-99.99,,,0.00,Acu-Link.com,2013-10-04 13:03:00,
2013-10-04 09:18:00,68.2,65.8,29.91,WSW,247,3.7,-999.0,92,-99.99,,,0.00,Acu-Link.com,2013-10-04 13:18:00,
2013-10-04 09:34:00,69.1,66.4,29.92,SSE,157,4.2,-999.0,91,-99.99,,,0.00,Acu-Link.com,2013-10-04 13:34:00,
2013-10-04 09:49:00,69.6,66.5,29.92,WSW,247,2.2,-999.0,90,-99.99,,,0.00,Acu-Link.com,2013-10-04 13:49:00,
2013-10-04 10:04:00,70.3,67.2,29.92,SE,135,3.7,-999.0,90,-99.99,,,0.00,Acu-Link.com,2013-10-04 14:04:00,
2013-10-04 10:19:00,71.6,67.5,29.92,South,180,3.7,-999.0,87,-99.99,,,0.00,Acu-Link.com,2013-10-04 14:19:00,
2013-10-04 10:35:00,72.7,68.6,29.92,SSW,202,2.2,-999.0,87,-99.99,,,0.00,Acu-Link.com,2013-10-04 14:35:00,
2013-10-04 10:50:00,73.4,68.6,29.91,WSW,247,2.7,-999.0,85,-99.99,,,0.00,Acu-Link.com,2013-10-04 14:50:00,
2013-10-04 11:05:00,74.5,68.6,29.91,WNW,292,0.0,-999.0,82,-99.99,,,0.00,Acu-Link.com,2013-10-04 15:05:00,
2013-10-04 11:20:00,75.9,69.3,29.91,SSE,157,5.3,-999.0,80,-99.99,,,0.00,Acu-Link.com,2013-10-04 15:20:00,
2013-10-04 11:36:00,77.2,69.8,29.91,West,270,3.2,-999.0,78,-99.99,,,0.00,Acu-Link.com,2013-10-04 15:36:00,
2013-10-04 11:51:00,77.4,69.2,29.91,SSE,157,3.2,-999.0,76,-99.99,,,0.00,Acu-Link.com,2013-10-04 15:51:00,
2013-10-04 12:06:00,78.1,69.9,29.90,West,270,4.7,-999.0,76,-99.99,,,0.00,Acu-Link.com,2013-10-04 16:06:00,
2013-10-04 12:21:00,79.5,70.1,29.91,SW,225,6.3,-999.0,73,-99.99,,,0.00,Acu-Link.com,2013-10-04 16:21:00,
2013-10-04 12:51:00,79.7,70.3,29.90,West,270,3.7,-999.0,73,-99.99,,,0.00,Acu-Link.com,2013-10-04 16:51:00,
2013-10-04 13:06:00,81.5,71.2,29.90,SSE,157,4.2,-999.0,71,-99.99,,,0.00,Acu-Link.com,2013-10-04 17:06:00,
2013-10-04 13:22:00,78.6,70.0,29.90,West,270,2.7,-999.0,75,-99.99,,,0.00,Acu-Link.com,2013-10-04 17:22:00,
2013-10-04 14:08:00,82.8,70.3,29.88,ESE,112,5.3,-999.0,66,-99.99,,,0.00,Acu-Link.com,2013-10-04 18:08:00,
2013-10-04 14:23:00,82.2,70.1,29.88,SSE,157,6.3,-999.0,67,-99.99,,,0.00,Acu-Link.com,2013-10-04 18:23:00,
2013-10-04 14:38:00,80.6,69.5,29.87,SW,225,5.8,-999.0,69,-99.99,,,0.00,Acu-Link.com,2013-10-04 18:38:00,
2013-10-04 14:53:00,81.3,69.3,29.86,SE,135,5.3,-999.0,67,-99.99,,,0.00,Acu-Link.com,2013-10-04 18:53:00,
2013-10-04 15:08:00,81.7,68.8,29.86,SW,225,5.3,-999.0,65,-99.99,,,0.00,Acu-Link.com,2013-10-04 19:08:00,
2013-10-04 15:24:00,81.5,69.0,29.85,WSW,247,2.2,-999.0,66,-99.99,,,0.00,Acu-Link.com,2013-10-04 19:24:00,
2013-10-04 15:39:00,80.4,68.8,29.85,SE,135,3.7,-999.0,68,-99.99,,,0.00,Acu-Link.com,2013-10-04 19:39:00,
2013-10-04 15:54:00,81.1,69.1,29.85,South,180,4.7,-999.0,67,-99.99,,,0.00,Acu-Link.com,2013-10-04 19:54:00,
2013-10-04 16:09:00,81.1,68.6,29.85,SSE,157,3.2,-999.0,66,-99.99,,,0.00,Acu-Link.com,2013-10-04 20:09:00,
2013-10-04 16:24:00,82.4,69.4,29.84,SSW,202,2.7,-999.0,65,-99.99,,,0.00,Acu-Link.com,2013-10-04 20:24:00,
2013-10-04 16:39:00,82.0,69.5,29.85,SSE,157,5.3,-999.0,66,-99.99,,,0.00,Acu-Link.com,2013-10-04 20:39:00,
2013-10-04 16:55:00,82.2,69.2,29.84,WSW,247,3.2,-999.0,65,-99.99,,,0.00,Acu-Link.com,2013-10-04 20:55:00,
2013-10-04 17:10:00,82.0,69.0,29.85,West,270,3.2,-999.0,65,-99.99,,,0.00,Acu-Link.com,2013-10-04 21:10:00,
2013-10-04 17:25:00,82.2,68.8,29.84,SSE,157,3.2,-999.0,64,-99.99,,,0.00,Acu-Link.com,2013-10-04 21:25:00,
2013-10-04 17:40:00,81.9,69.0,29.84,SSE,157,3.2,-999.0,65,-99.99,,,0.00,Acu-Link.com,2013-10-04 21:40:00,
2013-10-04 17:55:00,80.2,67.8,29.84,SE,135,3.7,-999.0,66,-99.99,,,0.00,Acu-Link.com,2013-10-04 21:55:00,
2013-10-04 18:10:00,79.9,67.9,29.84,SSE,157,4.7,-999.0,67,-99.99,,,0.00,Acu-Link.com,2013-10-04 22:10:00,
2013-10-04 18:26:00,79.2,68.1,29.84,SSE,157,2.7,-999.0,69,-99.99,,,0.00,Acu-Link.com,2013-10-04 22:26:00,
2013-10-04 18:41:00,78.4,68.2,29.85,South,180,1.7,-999.0,71,-99.99,,,0.00,Acu-Link.com,2013-10-04 22:41:00,
2013-10-04 18:56:00,78.4,68.2,29.84,South,180,3.2,-999.0,71,-99.99,,,0.00,Acu-Link.com,2013-10-04 22:56:00,
2013-10-04 19:12:00,77.7,68.3,29.85,SSE,157,3.7,-999.0,73,-99.99,,,0.00,Acu-Link.com,2013-10-04 23:12:00,
2013-10-04 19:27:00,76.8,68.3,29.85,South,180,2.2,-999.0,75,-99.99,,,0.00,Acu-Link.com,2013-10-04 23:27:00,
2013-10-04 19:42:00,76.5,68.4,29.86,South,180,3.2,-999.0,76,-99.99,,,0.00,Acu-Link.com,2013-10-04 23:42:00,
2013-10-04 19:57:00,75.9,68.2,29.85,SSW,202,1.1,-999.0,77,-99.99,,,0.00,Acu-Link.com,2013-10-04 23:57:00,
2013-10-04 20:12:00,75.6,68.2,29.85,South,180,2.7,-999.0,78,-99.99,,,0.00,Acu-Link.com,2013-10-05 00:12:00,
2013-10-04 20:27:00,75.6,68.2,29.85,WSW,247,1.7,-999.0,78,-99.99,,,0.00,Acu-Link.com,2013-10-05 00:27:00,
2013-10-04 20:42:00,75.4,68.0,29.86,SSE,157,4.2,-999.0,78,-99.99,,,0.00,Acu-Link.com,2013-10-05 00:42:00,
2013-10-04 20:57:00,75.2,68.2,29.86,SSE,157,3.7,-999.0,79,-99.99,,,0.00,Acu-Link.com,2013-10-05 00:57:00,
2013-10-04 21:12:00,75.2,68.2,29.87,SSE,157,3.2,-999.0,79,-99.99,,,0.00,Acu-Link.com,2013-10-05 01:12:00,
2013-10-04 21:27:00,74.5,67.9,29.87,South,180,3.7,-999.0,80,-99.99,,,0.00,Acu-Link.com,2013-10-05 01:27:00,
2013-10-04 21:42:00,74.5,67.9,29.86,SSE,157,3.7,-999.0,80,-99.99,,,0.00,Acu-Link.com,2013-10-05 01:42:00,
2013-10-04 21:57:00,74.1,67.5,29.87,SSE,157,4.2,-999.0,80,-99.99,,,0.00,Acu-Link.com,2013-10-05 01:57:00,
2013-10-04 22:13:00,73.9,67.7,29.87,SE,135,2.7,-999.0,81,-99.99,,,0.00,Acu-Link.com,2013-10-05 02:13:00,
2013-10-04 22:28:00,73.8,67.6,29.87,SSE,157,2.7,-999.0,81,-99.99,,,0.00,Acu-Link.com,2013-10-05 02:28:00,
2013-10-04 22:43:00,73.4,67.6,29.86,ESE,112,3.2,-999.0,82,-99.99,,,0.00,Acu-Link.com,2013-10-05 02:43:00,
2013-10-04 22:59:00,73.4,67.6,29.87,SE,135,1.7,-999.0,82,-99.99,,,0.00,Acu-Link.com,2013-10-05 02:59:00,
2013-10-04 23:14:00,73.2,67.7,29.87,SSE,157,2.7,-999.0,83,-99.99,,,0.00,Acu-Link.com,2013-10-05 03:14:00,
2013-10-04 23:29:00,73.4,67.9,29.86,SSE,157,3.2,-999.0,83,-99.99,,,0.00,Acu-Link.com,2013-10-05 03:29:00,
2013-10-04 23:44:00,73.2,67.7,29.86,SSE,157,2.2,-999.0,83,-99.99,,,0.00,Acu-Link.com,2013-10-05 03:44:00,